ADDS METAR Data INFO
IDs: Format: Raw Decoded Include TAF

Data at: 1747 UTC 21 Oct 2017

KORC 211735Z AUTO 19016G24KT 10SM SCT022 BKN070 21/18 A2960 RMK AO2
KORC 211715Z AUTO 19015G24KT 10SM SCT024 BKN070 22/18 A2961 RMK AO2
KORC 211655Z AUTO 19018G25KT 10SM BKN022 BKN028 21/18 A2960 RMK AO2
KORC 211635Z AUTO 19019G26KT 10SM OVC022 21/18 A2960 RMK AO2
KORC 211615Z AUTO 19016KT 10SM OVC022 21/18 A2960 RMK AO2
KORC 211555Z AUTO 18016G24KT 10SM BKN022 21/18 A2959 RMK AO2
KORC 211535Z AUTO 18014G22KT 10SM SCT020 BKN060 21/19 A2959 RMK AO2
KORC 211515Z AUTO 17013G19KT 10SM SCT018 BKN060 21/18 A2959 RMK AO2
KORC 211455Z AUTO 17013G18KT 10SM OVC018 20/18 A2959 RMK AO2
KORC 211435Z AUTO 17012KT 10SM OVC018 20/18 A2959 RMK AO2
KORC 211415Z AUTO 17010KT 10SM BKN018 BKN028 OVC034 19/17 A2959 RMK AO2
KORC 211355Z AUTO 17011G20KT 10SM SCT016 BKN021 OVC034 20/17 A2959 RMK AO2
KORC 211335Z AUTO 17008G17KT 10SM BKN019 BKN025 OVC030 19/17 A2959 RMK AO2
KORC 211315Z AUTO 18011G15KT 10SM BKN017 BKN023 OVC030 19/17 A2960 RMK AO2
KORC 211255Z AUTO 17009G16KT 10SM BKN017 OVC024 19/17 A2959 RMK AO2
KORC 211235Z AUTO 17008KT 10SM BKN017 OVC024 19/17 A2958 RMK AO2
KORC 211215Z AUTO 17010G17KT 10SM BKN017 OVC024 19/17 A2957 RMK AO2
KORC 211155Z AUTO 18010G17KT 10SM -DZ SCT017 OVC024 19/17 A2957 RMK AO2
KORC 211135Z AUTO 16013G22KT 120V190 10SM BKN017 OVC024 19/17 A2957 RMK AO2
KORC 211115Z AUTO 17013G21KT 10SM OVC019 19/17 A2956 RMK AO2
KORC 211055Z AUTO 17012G16KT 10SM OVC019 19/17 A2957 RMK AO2
KORC 211035Z AUTO 18011G20KT 10SM OVC021 19/17 A2957 RMK AO2
KORC 211015Z AUTO 16015G21KT 10SM OVC023 19/16 A2957 RMK AO2
KORC 210955Z AUTO 17015G19KT 10SM OVC023 19/16 A2956 RMK AO2
KORC 210935Z AUTO 17015G20KT 10SM OVC025 19/16 A2957 RMK AO2
KORC 210915Z AUTO 17014G21KT 10SM BKN027 OVC045 19/16 A2957 RMK AO2
KORC 210855Z AUTO 18015G23KT 10SM OVC027 19/16 A2957 RMK AO2
KORC 210835Z AUTO 17016G22KT 10SM OVC029 19/16 A2958 RMK AO2
KORC 210815Z AUTO 17012G21KT 10SM SCT029 BKN043 19/16 A2958 RMK AO2
KORC 210755Z AUTO 18015G20KT 10SM SCT029 BKN043 19/16 A2959 RMK AO2
KORC 210735Z AUTO 18020G27KT 10SM CLR 19/16 A2959 RMK AO2
KORC 210715Z AUTO 18018G29KT 10SM SCT060 19/16 A2960 RMK AO2
KORC 210655Z AUTO 18021G28KT 10SM CLR 19/16 A2961 RMK AO2
KORC 210635Z AUTO 18019G25KT 10SM CLR 19/16 A2961 RMK AO2
KORC 210615Z AUTO 19017G24KT 10SM CLR 19/16 A2962 RMK AO2
KORC 210555Z AUTO 18019G23KT 10SM CLR 19/16 A2962 RMK AO2
KORC 210535Z AUTO 18017G24KT 10SM CLR 19/16 A2963 RMK AO2
KORC 210515Z AUTO 18016G25KT 10SM CLR 19/16 A2964 RMK AO2
KORC 210455Z AUTO 18016G21KT 10SM CLR 19/16 A2963 RMK AO2
KORC 210435Z AUTO 17013G21KT 10SM CLR 19/16 A2964 RMK AO2
KORC 210415Z AUTO 18013G20KT 10SM CLR 19/16 A2965 RMK AO2
KORC 210355Z AUTO 18015G22KT 10SM CLR 20/16 A2965 RMK AO2
KORC 210335Z AUTO 18014G22KT 10SM CLR 20/16 A2965 RMK AO2
KORC 210315Z AUTO 17017G24KT 10SM CLR 21/16 A2964 RMK AO2
KORC 210255Z AUTO 17017G23KT 10SM CLR 21/16 A2964 RMK AO2
KORC 210235Z AUTO 17016G23KT 10SM CLR 21/16 A2964 RMK AO2
KORC 210215Z AUTO 17014G21KT 10SM CLR 21/16 A2964 RMK AO2
KORC 210155Z AUTO 17013G20KT 10SM CLR 21/16 A2963 RMK AO2
KORC 210135Z AUTO 17014G23KT 10SM CLR 21/16 A2963 RMK AO2
KORC 210115Z AUTO 17017G23KT 10SM CLR 21/16 A2964 RMK AO2
KORC 210055Z AUTO 17017G24KT 10SM CLR 21/16 A2965 RMK AO2
KORC 210035Z AUTO 17013G25KT 10SM CLR 22/16 A2964 RMK AO2
KORC 210015Z AUTO 17014G21KT 10SM CLR 22/15 A2964 RMK AO2
KORC 202355Z AUTO 17016G28KT 10SM CLR 22/15 A2963 RMK AO2
KORC 202335Z AUTO 17015G23KT 10SM CLR 23/15 A2963 RMK AO2
KORC 202315Z AUTO 17016G23KT 10SM CLR 23/15 A2964 RMK AO2
KORC 202255Z AUTO 17017G28KT 10SM CLR 23/16 A2965 RMK AO2
KORC 202235Z AUTO 17017G25KT 10SM CLR 23/15 A2966 RMK AO2
KORC 202215Z AUTO 18023G33KT 10SM CLR 23/15 A2966 RMK AO2
KORC 202155Z AUTO 18022G31KT 10SM CLR 24/14 A2966 RMK AO2
KORC 202135Z AUTO 17019G26KT 10SM CLR 24/14 A2967 RMK AO2
KORC 202115Z AUTO 18016G29KT 10SM CLR 24/14 A2968 RMK AO2
KORC 202055Z AUTO 18021G29KT 10SM CLR 25/14 A2967 RMK AO2
KORC 202035Z AUTO 19020G25KT 10SM CLR 23/14 A2969 RMK AO2
KORC 202015Z AUTO 18021G29KT 10SM CLR 24/14 A2970 RMK AO2
KORC 201955Z AUTO 17018G27KT 10SM CLR 25/14 A2969 RMK AO2
KORC 201935Z AUTO 17018G25KT 10SM CLR 24/14 A2970 RMK AO2
KORC 201915Z AUTO 19023G29KT 10SM CLR 24/14 A2972 RMK AO2
KORC 201855Z AUTO 18020G27KT 10SM CLR 23/14 A2973 RMK AO2
KORC 201835Z AUTO 18018G27KT 10SM CLR 23/14 A2975 RMK AO2
KORC 201815Z AUTO 18017G26KT 10SM CLR 23/14 A2976 RMK AO2
KORC 201755Z AUTO 18018G26KT 10SM CLR 22/14 A2977 RMK AO2
KORC 201735Z AUTO 18018G25KT 10SM CLR 22/14 A2978 RMK AO2
KORC 201715Z AUTO 19021G27KT 10SM CLR 22/13 A2979 RMK AO2
KORC 201655Z AUTO 19020G25KT 10SM CLR 21/13 A2980 RMK AO2
KORC 201635Z AUTO 18019G24KT 10SM CLR 19/13 A2981 RMK AO2
KORC 201615Z AUTO 19018G25KT 10SM CLR 18/13 A2982 RMK AO2
KORC 201555Z AUTO 18016G24KT 10SM CLR 18/13 A2983 RMK AO2
KORC 201535Z AUTO 19016G24KT 10SM CLR 18/13 A2984 RMK AO2
KORC 201515Z AUTO 18016G22KT 10SM CLR 17/13 A2984 RMK AO2
KORC 201455Z AUTO 18016G24KT 10SM CLR 17/13 A2985 RMK AO2
KORC 201435Z AUTO 18016G19KT 10SM CLR 16/12 A2985 RMK AO2
KORC 201415Z AUTO 18015G21KT 10SM CLR 15/12 A2986 RMK AO2
KORC 201355Z AUTO 19013G20KT 10SM CLR 14/12 A2986 RMK AO2
KORC 201335Z AUTO 18014G18KT 10SM CLR 14/12 A2986 RMK AO2
KORC 201315Z AUTO 19010KT 10SM CLR 14/12 A2987 RMK AO2
KORC 201255Z AUTO 18010G15KT 10SM CLR 14/12 A2987 RMK AO2
KORC 201235Z AUTO 18009KT 10SM CLR 14/11 A2988 RMK AO2
KORC 201215Z AUTO 19011KT 10SM CLR 14/11 A2988 RMK AO2
KORC 201155Z AUTO 19012G16KT 10SM CLR 13/11 A2988 RMK AO2
KORC 201135Z AUTO 19010KT 10SM CLR 13/11 A2988 RMK AO2
KORC 201115Z AUTO 18010KT 10SM CLR 13/11 A2989 RMK AO2
KORC 201055Z AUTO 18008KT 10SM CLR 13/10 A2989 RMK AO2
KORC 201035Z AUTO 18008KT 10SM CLR 13/10 A2989 RMK AO2
KORC 201015Z AUTO 18009KT 10SM CLR 13/10 A2989 RMK AO2
KORC 200955Z AUTO 18008KT 10SM CLR 13/11 A2989 RMK AO2
KORC 200935Z AUTO 17008KT 10SM CLR 13/11 A2989 RMK AO2
KORC 200915Z AUTO 18007KT 10SM CLR 13/11 A2990 RMK AO2
KORC 200855Z AUTO 18007KT 10SM CLR 13/11 A2990 RMK AO2
KORC 200835Z AUTO 18007KT 10SM CLR 13/11 A2991 RMK AO2
KORC 200815Z AUTO 18007KT 10SM CLR 13/11 A2991 RMK AO2
KORC 200755Z AUTO 17007KT 10SM CLR 14/11 A2991 RMK AO2
KORC 200735Z AUTO 17008KT 10SM CLR 14/11 A2991 RMK AO2
KORC 200715Z AUTO 17007KT 10SM CLR 14/11 A2992 RMK AO2
KORC 200655Z AUTO 17007KT 10SM CLR 15/12 A2992 RMK AO2
KORC 200635Z AUTO 17007KT 10SM CLR 14/12 A2992 RMK AO2
KORC 200615Z AUTO 18008KT 10SM CLR 14/11 A2992 RMK AO2
KORC 200555Z AUTO 18007KT 10SM CLR 14/11 A2992 RMK AO2